sensor_id;sensor_type;location;lat;lon;timestamp;P1;durP1;ratioP1;P2;durP2;ratioP2
16385;SDS011;8302;51.154;4.456;2022-09-25T00:00:55;2.85;;;0.98;;
16385;SDS011;8302;51.154;4.456;2022-09-25T00:03:25;3.15;;;1.10;;
16385;SDS011;8302;51.154;4.456;2022-09-25T00:05:58;4.07;;;1.17;;
16385;SDS011;8302;51.154;4.456;2022-09-25T00:08:26;3.72;;;0.85;;
16385;SDS011;8302;51.154;4.456;2022-09-25T00:10:54;3.38;;;1.10;;
16385;SDS011;8302;51.154;4.456;2022-09-25T00:13:22;4.53;;;1.20;;
16385;SDS011;8302;51.154;4.456;2022-09-25T00:15:51;1.67;;;0.88;;
16385;SDS011;8302;51.154;4.456;2022-09-25T00:18:19;1.67;;;1.10;;
16385;SDS011;8302;51.154;4.456;2022-09-25T00:21:10;4.07;;;1.55;;
16385;SDS011;8302;51.154;4.456;2022-09-25T00:23:37;5.60;;;1.27;;
16385;SDS011;8302;51.154;4.456;2022-09-25T00:26:05;1.65;;;1.10;;
16385;SDS011;8302;51.154;4.456;2022-09-25T00:28:34;2.00;;;1.08;;
16385;SDS011;8302;51.154;4.456;2022-09-25T00:31:01;6.10;;;1.35;;
16385;SDS011;8302;51.154;4.456;2022-09-25T00:33:30;2.47;;;1.30;;
16385;SDS011;8302;51.154;4.456;2022-09-25T00:35:59;4.20;;;1.00;;
16385;SDS011;8302;51.154;4.456;2022-09-25T00:38:30;3.83;;;1.00;;
16385;SDS011;8302;51.154;4.456;2022-09-25T00:40:58;1.60;;;0.95;;
16385;SDS011;8302;51.154;4.456;2022-09-25T00:43:33;5.88;;;1.45;;
16385;SDS011;8302;51.154;4.456;2022-09-25T00:46:04;4.05;;;1.20;;
16385;SDS011;8302;51.154;4.456;2022-09-25T00:48:32;4.10;;;1.20;;
16385;SDS011;8302;51.154;4.456;2022-09-25T00:50:59;2.35;;;0.90;;
16385;SDS011;8302;51.154;4.456;2022-09-25T00:53:28;4.85;;;1.00;;
16385;SDS011;8302;51.154;4.456;2022-09-25T00:55:59;3.88;;;1.40;;
16385;SDS011;8302;51.154;4.456;2022-09-25T00:58:27;3.90;;;1.10;;
16385;SDS011;8302;51.154;4.456;2022-09-25T01:00:56;4.05;;;1.00;;
16385;SDS011;8302;51.154;4.456;2022-09-25T01:03:24;4.50;;;1.20;;
16385;SDS011;8302;51.154;4.456;2022-09-25T01:05:52;2.63;;;1.40;;
16385;SDS011;8302;51.154;4.456;2022-09-25T01:08:22;4.82;;;1.30;;
16385;SDS011;8302;51.154;4.456;2022-09-25T01:10:51;3.58;;;1.10;;
16385;SDS011;8302;51.154;4.456;2022-09-25T01:13:20;2.97;;;1.15;;
16385;SDS011;8302;51.154;4.456;2022-09-25T01:15:48;9.00;;;1.40;;
16385;SDS011;8302;51.154;4.456;2022-09-25T01:18:23;4.15;;;1.10;;
16385;SDS011;8302;51.154;4.456;2022-09-25T01:21:08;3.05;;;1.02;;
16385;SDS011;8302;51.154;4.456;2022-09-25T01:23:50;1.20;;;0.95;;
16385;SDS011;8302;51.154;4.456;2022-09-25T01:26:24;2.97;;;1.00;;
16385;SDS011;8302;51.154;4.456;2022-09-25T01:29:04;4.28;;;1.40;;
16385;SDS011;8302;51.154;4.456;2022-09-25T01:31:34;3.47;;;1.27;;
16385;SDS011;8302;51.154;4.456;2022-09-25T01:34:04;2.00;;;1.13;;
16385;SDS011;8302;51.154;4.456;2022-09-25T01:36:35;4.50;;;1.40;;
16385;SDS011;8302;51.154;4.456;2022-09-25T01:39:06;3.70;;;1.27;;
16385;SDS011;8302;51.154;4.456;2022-09-25T01:41:37;2.95;;;1.30;;
16385;SDS011;8302;51.154;4.456;2022-09-25T01:44:08;3.35;;;1.10;;
16385;SDS011;8302;51.154;4.456;2022-09-25T01:46:39;2.45;;;1.10;;
16385;SDS011;8302;51.154;4.456;2022-09-25T01:49:08;3.85;;;1.25;;
16385;SDS011;8302;51.154;4.456;2022-09-25T01:51:39;10.10;;;2.28;;
16385;SDS011;8302;51.154;4.456;2022-09-25T01:54:08;8.18;;;1.17;;
16385;SDS011;8302;51.154;4.456;2022-09-25T01:56:37;5.97;;;1.20;;
16385;SDS011;8302;51.154;4.456;2022-09-25T01:59:08;2.03;;;1.05;;
16385;SDS011;8302;51.154;4.456;2022-09-25T02:01:39;5.22;;;1.60;;
16385;SDS011;8302;51.154;4.456;2022-09-25T02:04:09;3.47;;;1.10;;
16385;SDS011;8302;51.154;4.456;2022-09-25T02:06:38;3.55;;;1.45;;
16385;SDS011;8302;51.154;4.456;2022-09-25T02:09:08;3.65;;;1.30;;
16385;SDS011;8302;51.154;4.456;2022-09-25T02:11:39;3.08;;;0.98;;
16385;SDS011;8302;51.154;4.456;2022-09-25T02:14:10;4.07;;;1.50;;
16385;SDS011;8302;51.154;4.456;2022-09-25T02:16:39;4.53;;;1.20;;
16385;SDS011;8302;51.154;4.456;2022-09-25T02:19:09;2.13;;;1.10;;
16385;SDS011;8302;51.154;4.456;2022-09-25T02:21:57;3.92;;;1.02;;
16385;SDS011;8302;51.154;4.456;2022-09-25T02:24:31;1.70;;;1.25;;
16385;SDS011;8302;51.154;4.456;2022-09-25T02:27:00;4.60;;;1.60;;
16385;SDS011;8302;51.154;4.456;2022-09-25T02:29:29;6.32;;;1.80;;
16385;SDS011;8302;51.154;4.456;2022-09-25T02:31:58;3.13;;;1.20;;
16385;SDS011;8302;51.154;4.456;2022-09-25T02:34:26;3.65;;;1.65;;
16385;SDS011;8302;51.154;4.456;2022-09-25T02:36:54;2.63;;;1.20;;
16385;SDS011;8302;51.154;4.456;2022-09-25T02:39:22;3.08;;;1.40;;
16385;SDS011;8302;51.154;4.456;2022-09-25T02:42:00;3.75;;;1.40;;
16385;SDS011;8302;51.154;4.456;2022-09-25T02:44:41;2.70;;;1.08;;
16385;SDS011;8302;51.154;4.456;2022-09-25T02:47:18;5.93;;;1.30;;
16385;SDS011;8302;51.154;4.456;2022-09-25T02:49:49;5.32;;;1.00;;
16385;SDS011;8302;51.154;4.456;2022-09-25T02:52:23;3.88;;;1.20;;
16385;SDS011;8302;51.154;4.456;2022-09-25T02:54:52;4.63;;;1.27;;
16385;SDS011;8302;51.154;4.456;2022-09-25T02:57:24;2.70;;;1.35;;
16385;SDS011;8302;51.154;4.456;2022-09-25T02:59:57;3.78;;;1.40;;
16385;SDS011;8302;51.154;4.456;2022-09-25T03:02:25;3.17;;;1.40;;
16385;SDS011;8302;51.154;4.456;2022-09-25T03:04:54;1.80;;;1.15;;
16385;SDS011;8302;51.154;4.456;2022-09-25T03:07:23;3.40;;;1.13;;
16385;SDS011;8302;51.154;4.456;2022-09-25T03:09:51;4.80;;;1.35;;
16385;SDS011;8302;51.154;4.456;2022-09-25T03:12:19;4.03;;;1.77;;
16385;SDS011;8302;51.154;4.456;2022-09-25T03:14:46;2.92;;;1.20;;
16385;SDS011;8302;51.154;4.456;2022-09-25T03:17:15;4.78;;;1.30;;
16385;SDS011;8302;51.154;4.456;2022-09-25T03:19:45;2.20;;;1.05;;
16385;SDS011;8302;51.154;4.456;2022-09-25T03:22:13;3.42;;;1.40;;
16385;SDS011;8302;51.154;4.456;2022-09-25T03:24:41;3.70;;;1.50;;
16385;SDS011;8302;51.154;4.456;2022-09-25T03:27:09;3.15;;;1.42;;
16385;SDS011;8302;51.154;4.456;2022-09-25T03:29:36;2.85;;;1.20;;
16385;SDS011;8302;51.154;4.456;2022-09-25T03:32:04;4.55;;;1.45;;
16385;SDS011;8302;51.154;4.456;2022-09-25T03:34:33;4.60;;;1.20;;
16385;SDS011;8302;51.154;4.456;2022-09-25T03:37:00;4.53;;;1.70;;
16385;SDS011;8302;51.154;4.456;2022-09-25T03:39:28;2.80;;;1.05;;
16385;SDS011;8302;51.154;4.456;2022-09-25T03:41:55;2.35;;;1.17;;
16385;SDS011;8302;51.154;4.456;2022-09-25T03:44:23;3.13;;;1.38;;
16385;SDS011;8302;51.154;4.456;2022-09-25T03:46:50;4.35;;;1.40;;
16385;SDS011;8302;51.154;4.456;2022-09-25T03:49:18;8.50;;;1.25;;
16385;SDS011;8302;51.154;4.456;2022-09-25T03:51:47;2.80;;;1.30;;
16385;SDS011;8302;51.154;4.456;2022-09-25T03:54:14;2.17;;;1.02;;
16385;SDS011;8302;51.154;4.456;2022-09-25T03:56:42;3.70;;;1.70;;
16385;SDS011;8302;51.154;4.456;2022-09-25T03:59:09;2.60;;;1.30;;
16385;SDS011;8302;51.154;4.456;2022-09-25T04:01:37;4.13;;;1.88;;
16385;SDS011;8302;51.154;4.456;2022-09-25T04:04:05;2.33;;;1.40;;
16385;SDS011;8302;51.154;4.456;2022-09-25T04:06:33;4.88;;;1.85;;
16385;SDS011;8302;51.154;4.456;2022-09-25T04:09:02;3.67;;;1.60;;
16385;SDS011;8302;51.154;4.456;2022-09-25T04:11:30;2.45;;;1.40;;
16385;SDS011;8302;51.154;4.456;2022-09-25T04:13:58;6.55;;;1.73;;
16385;SDS011;8302;51.154;4.456;2022-09-25T04:16:25;2.67;;;1.50;;
16385;SDS011;8302;51.154;4.456;2022-09-25T04:18:54;3.97;;;1.33;;
16385;SDS011;8302;51.154;4.456;2022-09-25T04:21:22;4.25;;;1.10;;
16385;SDS011;8302;51.154;4.456;2022-09-25T04:23:49;2.83;;;1.27;;
16385;SDS011;8302;51.154;4.456;2022-09-25T04:26:33;2.67;;;1.55;;
16385;SDS011;8302;51.154;4.456;2022-09-25T04:29:00;2.15;;;1.40;;
16385;SDS011;8302;51.154;4.456;2022-09-25T04:31:28;2.90;;;1.45;;
16385;SDS011;8302;51.154;4.456;2022-09-25T04:33:56;3.38;;;1.35;;
16385;SDS011;8302;51.154;4.456;2022-09-25T04:36:23;2.30;;;1.20;;
16385;SDS011;8302;51.154;4.456;2022-09-25T04:38:50;2.92;;;1.42;;
16385;SDS011;8302;51.154;4.456;2022-09-25T04:41:18;2.50;;;1.60;;
16385;SDS011;8302;51.154;4.456;2022-09-25T04:43:47;3.90;;;1.63;;
16385;SDS011;8302;51.154;4.456;2022-09-25T04:46:15;3.20;;;1.85;;
16385;SDS011;8302;51.154;4.456;2022-09-25T04:48:47;3.58;;;1.55;;
16385;SDS011;8302;51.154;4.456;2022-09-25T04:51:15;3.22;;;1.58;;
16385;SDS011;8302;51.154;4.456;2022-09-25T04:53:43;3.13;;;1.70;;
16385;SDS011;8302;51.154;4.456;2022-09-25T04:56:10;8.40;;;2.33;;
16385;SDS011;8302;51.154;4.456;2022-09-25T04:58:42;3.45;;;1.60;;
16385;SDS011;8302;51.154;4.456;2022-09-25T05:01:11;2.60;;;1.50;;
16385;SDS011;8302;51.154;4.456;2022-09-25T05:03:39;3.28;;;1.50;;
16385;SDS011;8302;51.154;4.456;2022-09-25T05:06:07;3.92;;;1.50;;
16385;SDS011;8302;51.154;4.456;2022-09-25T05:08:34;4.05;;;1.75;;
16385;SDS011;8302;51.154;4.456;2022-09-25T05:11:02;3.90;;;1.50;;
16385;SDS011;8302;51.154;4.456;2022-09-25T05:13:30;5.22;;;1.58;;
16385;SDS011;8302;51.154;4.456;2022-09-25T05:15:57;2.38;;;1.58;;
16385;SDS011;8302;51.154;4.456;2022-09-25T05:18:26;2.05;;;1.52;;
16385;SDS011;8302;51.154;4.456;2022-09-25T05:20:54;3.65;;;1.42;;
16385;SDS011;8302;51.154;4.456;2022-09-25T05:23:22;3.88;;;1.70;;
16385;SDS011;8302;51.154;4.456;2022-09-25T05:25:50;3.00;;;1.63;;
16385;SDS011;8302;51.154;4.456;2022-09-25T05:28:18;1.92;;;1.38;;
16385;SDS011;8302;51.154;4.456;2022-09-25T05:30:45;2.78;;;1.52;;
16385;SDS011;8302;51.154;4.456;2022-09-25T05:33:13;3.97;;;1.55;;
16385;SDS011;8302;51.154;4.456;2022-09-25T05:35:42;3.67;;;1.45;;
16385;SDS011;8302;51.154;4.456;2022-09-25T05:38:09;4.47;;;2.10;;
16385;SDS011;8302;51.154;4.456;2022-09-25T05:40:37;2.40;;;1.42;;
16385;SDS011;8302;51.154;4.456;2022-09-25T05:43:05;3.05;;;1.85;;
16385;SDS011;8302;51.154;4.456;2022-09-25T05:45:33;2.65;;;1.50;;
16385;SDS011;8302;51.154;4.456;2022-09-25T05:48:01;5.20;;;1.42;;
16385;SDS011;8302;51.154;4.456;2022-09-25T05:50:29;3.45;;;1.40;;
16385;SDS011;8302;51.154;4.456;2022-09-25T05:53:00;2.10;;;1.30;;
16385;SDS011;8302;51.154;4.456;2022-09-25T05:55:28;3.28;;;1.60;;
16385;SDS011;8302;51.154;4.456;2022-09-25T05:57:59;4.07;;;1.40;;
16385;SDS011;8302;51.154;4.456;2022-09-25T06:00:28;1.73;;;1.42;;
16385;SDS011;8302;51.154;4.456;2022-09-25T06:02:58;2.17;;;1.52;;
16385;SDS011;8302;51.154;4.456;2022-09-25T06:05:25;3.30;;;1.50;;
16385;SDS011;8302;51.154;4.456;2022-09-25T06:07:53;2.97;;;1.48;;
16385;SDS011;8302;51.154;4.456;2022-09-25T06:10:23;4.35;;;1.85;;
16385;SDS011;8302;51.154;4.456;2022-09-25T06:12:54;8.18;;;2.80;;
16385;SDS011;8302;51.154;4.456;2022-09-25T06:15:24;5.00;;;1.80;;
16385;SDS011;8302;51.154;4.456;2022-09-25T06:17:53;2.67;;;1.73;;
16385;SDS011;8302;51.154;4.456;2022-09-25T06:20:20;4.25;;;1.40;;
16385;SDS011;8302;51.154;4.456;2022-09-25T06:22:51;4.70;;;1.95;;
16385;SDS011;8302;51.154;4.456;2022-09-25T06:25:19;5.43;;;1.35;;
16385;SDS011;8302;51.154;4.456;2022-09-25T06:27:50;1.88;;;1.38;;
16385;SDS011;8302;51.154;4.456;2022-09-25T06:30:17;3.92;;;2.00;;
16385;SDS011;8302;51.154;4.456;2022-09-25T06:32:46;1.98;;;1.30;;
16385;SDS011;8302;51.154;4.456;2022-09-25T06:35:14;3.72;;;1.73;;
16385;SDS011;8302;51.154;4.456;2022-09-25T06:37:42;2.50;;;1.58;;
16385;SDS011;8302;51.154;4.456;2022-09-25T06:40:09;1.58;;;1.33;;
16385;SDS011;8302;51.154;4.456;2022-09-25T06:42:37;3.75;;;1.80;;
16385;SDS011;8302;51.154;4.456;2022-09-25T06:45:06;3.25;;;1.90;;
16385;SDS011;8302;51.154;4.456;2022-09-25T06:47:36;2.20;;;1.70;;
16385;SDS011;8302;51.154;4.456;2022-09-25T06:50:04;4.03;;;2.05;;
16385;SDS011;8302;51.154;4.456;2022-09-25T06:52:32;3.25;;;1.67;;
16385;SDS011;8302;51.154;4.456;2022-09-25T06:54:59;1.63;;;1.40;;
16385;SDS011;8302;51.154;4.456;2022-09-25T06:57:27;3.33;;;1.77;;
16385;SDS011;8302;51.154;4.456;2022-09-25T06:59:55;5.10;;;1.73;;
16385;SDS011;8302;51.154;4.456;2022-09-25T07:02:24;4.70;;;1.60;;
16385;SDS011;8302;51.154;4.456;2022-09-25T07:05:10;4.80;;;2.42;;
16385;SDS011;8302;51.154;4.456;2022-09-25T07:07:38;4.88;;;2.10;;
16385;SDS011;8302;51.154;4.456;2022-09-25T07:10:06;5.68;;;1.70;;
16385;SDS011;8302;51.154;4.456;2022-09-25T07:12:34;9.05;;;2.35;;
16385;SDS011;8302;51.154;4.456;2022-09-25T07:15:02;8.80;;;2.05;;
16385;SDS011;8302;51.154;4.456;2022-09-25T07:17:31;6.80;;;2.47;;
16385;SDS011;8302;51.154;4.456;2022-09-25T07:19:58;6.95;;;1.92;;
16385;SDS011;8302;51.154;4.456;2022-09-25T07:22:26;4.25;;;1.73;;
16385;SDS011;8302;51.154;4.456;2022-09-25T07:24:55;6.18;;;1.90;;
16385;SDS011;8302;51.154;4.456;2022-09-25T07:27:22;6.18;;;2.38;;
16385;SDS011;8302;51.154;4.456;2022-09-25T07:29:50;6.13;;;2.13;;
16385;SDS011;8302;51.154;4.456;2022-09-25T07:32:18;6.40;;;2.08;;
16385;SDS011;8302;51.154;4.456;2022-09-25T07:34:47;7.22;;;2.30;;
16385;SDS011;8302;51.154;4.456;2022-09-25T07:37:16;6.43;;;2.33;;
16385;SDS011;8302;51.154;4.456;2022-09-25T07:39:44;3.65;;;2.00;;
16385;SDS011;8302;51.154;4.456;2022-09-25T07:42:12;4.32;;;2.00;;
16385;SDS011;8302;51.154;4.456;2022-09-25T07:44:39;3.75;;;1.60;;
16385;SDS011;8302;51.154;4.456;2022-09-25T07:47:13;4.53;;;1.85;;
16385;SDS011;8302;51.154;4.456;2022-09-25T07:49:42;4.32;;;1.60;;
16385;SDS011;8302;51.154;4.456;2022-09-25T07:52:11;3.28;;;1.60;;
16385;SDS011;8302;51.154;4.456;2022-09-25T07:54:39;6.90;;;1.95;;
16385;SDS011;8302;51.154;4.456;2022-09-25T07:57:08;5.38;;;1.67;;
16385;SDS011;8302;51.154;4.456;2022-09-25T07:59:37;6.75;;;2.15;;
16385;SDS011;8302;51.154;4.456;2022-09-25T08:02:05;3.78;;;1.75;;
16385;SDS011;8302;51.154;4.456;2022-09-25T08:04:33;5.90;;;1.60;;
16385;SDS011;8302;51.154;4.456;2022-09-25T08:07:01;3.63;;;1.30;;
16385;SDS011;8302;51.154;4.456;2022-09-25T08:09:32;1.10;;;0.60;;
16385;SDS011;8302;51.154;4.456;2022-09-25T08:12:00;0.40;;;0.40;;
16385;SDS011;8302;51.154;4.456;2022-09-25T08:14:27;3.17;;;0.80;;
16385;SDS011;8302;51.154;4.456;2022-09-25T08:16:55;1.52;;;0.60;;
16385;SDS011;8302;51.154;4.456;2022-09-25T08:19:23;2.78;;;1.00;;
16385;SDS011;8302;51.154;4.456;2022-09-25T08:21:50;2.33;;;0.90;;
16385;SDS011;8302;51.154;4.456;2022-09-25T08:24:18;3.00;;;1.15;;
16385;SDS011;8302;51.154;4.456;2022-09-25T08:26:47;1.13;;;0.55;;
16385;SDS011;8302;51.154;4.456;2022-09-25T08:29:15;1.48;;;0.73;;
16385;SDS011;8302;51.154;4.456;2022-09-25T08:31:43;0.45;;;0.45;;
16385;SDS011;8302;51.154;4.456;2022-09-25T08:34:11;2.65;;;0.85;;
16385;SDS011;8302;51.154;4.456;2022-09-25T08:36:59;2.03;;;0.70;;
16385;SDS011;8302;51.154;4.456;2022-09-25T08:39:27;0.65;;;0.65;;
16385;SDS011;8302;51.154;4.456;2022-09-25T08:41:56;0.30;;;0.20;;
16385;SDS011;8302;51.154;4.456;2022-09-25T08:44:25;6.03;;;0.60;;
16385;SDS011;8302;51.154;4.456;2022-09-25T08:46:54;1.13;;;0.70;;
16385;SDS011;8302;51.154;4.456;2022-09-25T08:49:46;0.10;;;0.10;;
16385;SDS011;8302;51.154;4.456;2022-09-25T08:52:16;1.63;;;0.40;;
16385;SDS011;8302;51.154;4.456;2022-09-25T08:54:45;1.13;;;0.45;;
16385;SDS011;8302;51.154;4.456;2022-09-25T08:57:15;0.17;;;0.17;;
16385;SDS011;8302;51.154;4.456;2022-09-25T08:59:45;0.55;;;0.55;;
16385;SDS011;8302;51.154;4.456;2022-09-25T09:02:15;0.10;;;0.10;;
16385;SDS011;8302;51.154;4.456;2022-09-25T09:04:44;1.25;;;0.70;;
16385;SDS011;8302;51.154;4.456;2022-09-25T09:07:14;1.08;;;0.40;;
16385;SDS011;8302;51.154;4.456;2022-09-25T09:09:54;0.47;;;0.47;;
16385;SDS011;8302;51.154;4.456;2022-09-25T09:12:26;0.10;;;0.10;;
16385;SDS011;8302;51.154;4.456;2022-09-25T09:15:06;0.70;;;0.40;;
16385;SDS011;8302;51.154;4.456;2022-09-25T09:17:39;0.10;;;0.10;;
16385;SDS011;8302;51.154;4.456;2022-09-25T09:20:12;1.55;;;0.52;;
16385;SDS011;8302;51.154;4.456;2022-09-25T09:22:41;0.28;;;0.28;;
16385;SDS011;8302;51.154;4.456;2022-09-25T09:25:14;0.75;;;0.30;;
16385;SDS011;8302;51.154;4.456;2022-09-25T09:27:50;0.30;;;0.22;;
16385;SDS011;8302;51.154;4.456;2022-09-25T09:30:20;2.33;;;0.57;;
16385;SDS011;8302;51.154;4.456;2022-09-25T09:32:53;0.30;;;0.30;;
16385;SDS011;8302;51.154;4.456;2022-09-25T09:35:25;0.40;;;0.40;;
16385;SDS011;8302;51.154;4.456;2022-09-25T09:38:02;0.90;;;0.50;;
16385;SDS011;8302;51.154;4.456;2022-09-25T09:40:40;0.60;;;0.50;;
16385;SDS011;8302;51.154;4.456;2022-09-25T09:43:17;0.55;;;0.55;;
16385;SDS011;8302;51.154;4.456;2022-09-25T09:45:49;1.52;;;0.30;;
16385;SDS011;8302;51.154;4.456;2022-09-25T09:48:19;2.33;;;0.40;;
16385;SDS011;8302;51.154;4.456;2022-09-25T09:50:55;1.05;;;0.60;;
16385;SDS011;8302;51.154;4.456;2022-09-25T09:56:09;2.67;;;1.40;;
16385;SDS011;8302;51.154;4.456;2022-09-25T09:58:44;3.63;;;1.05;;
16385;SDS011;8302;51.154;4.456;2022-09-25T10:01:12;0.38;;;0.32;;
16385;SDS011;8302;51.154;4.456;2022-09-25T10:04:02;1.80;;;0.45;;
16385;SDS011;8302;51.154;4.456;2022-09-25T10:06:32;0.35;;;0.35;;
16385;SDS011;8302;51.154;4.456;2022-09-25T10:09:01;1.15;;;0.82;;
16385;SDS011;8302;51.154;4.456;2022-09-25T10:11:28;0.63;;;0.38;;
16385;SDS011;8302;51.154;4.456;2022-09-25T10:14:01;1.10;;;0.38;;
16385;SDS011;8302;51.154;4.456;2022-09-25T10:16:29;1.00;;;0.50;;
16385;SDS011;8302;51.154;4.456;2022-09-25T10:18:58;2.08;;;0.70;;
16385;SDS011;8302;51.154;4.456;2022-09-25T10:21:28;3.55;;;0.70;;
16385;SDS011;8302;51.154;4.456;2022-09-25T10:23:56;1.83;;;0.50;;
16385;SDS011;8302;51.154;4.456;2022-09-25T10:26:26;0.32;;;0.30;;
16385;SDS011;8302;51.154;4.456;2022-09-25T10:28:54;1.10;;;0.50;;
16385;SDS011;8302;51.154;4.456;2022-09-25T10:31:25;1.83;;;0.70;;
16385;SDS011;8302;51.154;4.456;2022-09-25T10:34:00;1.63;;;0.55;;
16385;SDS011;8302;51.154;4.456;2022-09-25T10:36:29;0.60;;;0.60;;
16385;SDS011;8302;51.154;4.456;2022-09-25T10:38:57;1.30;;;0.55;;
16385;SDS011;8302;51.154;4.456;2022-09-25T10:41:45;1.45;;;0.88;;
16385;SDS011;8302;51.154;4.456;2022-09-25T10:44:19;1.20;;;0.80;;
16385;SDS011;8302;51.154;4.456;2022-09-25T10:46:48;1.13;;;0.90;;
16385;SDS011;8302;51.154;4.456;2022-09-25T10:49:43;2.22;;;1.00;;
16385;SDS011;8302;51.154;4.456;2022-09-25T10:52:43;2.72;;;0.77;;
16385;SDS011;8302;51.154;4.456;2022-09-25T10:55:12;1.20;;;0.85;;
16385;SDS011;8302;51.154;4.456;2022-09-25T10:57:41;0.60;;;0.55;;
16385;SDS011;8302;51.154;4.456;2022-09-25T11:00:18;2.60;;;0.80;;
16385;SDS011;8302;51.154;4.456;2022-09-25T11:02:48;0.95;;;0.70;;
16385;SDS011;8302;51.154;4.456;2022-09-25T11:05:18;1.30;;;0.60;;
16385;SDS011;8302;51.154;4.456;2022-09-25T11:07:47;2.03;;;0.70;;
16385;SDS011;8302;51.154;4.456;2022-09-25T11:10:21;2.83;;;0.80;;
16385;SDS011;8302;51.154;4.456;2022-09-25T11:12:49;0.88;;;0.70;;
16385;SDS011;8302;51.154;4.456;2022-09-25T11:15:18;2.00;;;0.70;;
16385;SDS011;8302;51.154;4.456;2022-09-25T11:17:48;2.22;;;0.90;;
16385;SDS011;8302;51.154;4.456;2022-09-25T11:20:20;2.75;;;0.85;;
16385;SDS011;8302;51.154;4.456;2022-09-25T11:22:54;1.25;;;0.80;;
16385;SDS011;8302;51.154;4.456;2022-09-25T11:25:24;0.93;;;0.68;;
16385;SDS011;8302;51.154;4.456;2022-09-25T11:27:55;0.95;;;0.60;;
16385;SDS011;8302;51.154;4.456;2022-09-25T11:30:24;0.75;;;0.50;;
16385;SDS011;8302;51.154;4.456;2022-09-25T11:32:57;2.03;;;0.60;;
16385;SDS011;8302;51.154;4.456;2022-09-25T11:35:31;1.42;;;0.93;;
16385;SDS011;8302;51.154;4.456;2022-09-25T11:38:01;0.57;;;0.57;;
16385;SDS011;8302;51.154;4.456;2022-09-25T11:40:33;1.33;;;0.60;;
16385;SDS011;8302;51.154;4.456;2022-09-25T11:43:24;1.27;;;0.70;;
16385;SDS011;8302;51.154;4.456;2022-09-25T11:45:57;2.78;;;0.70;;
16385;SDS011;8302;51.154;4.456;2022-09-25T11:48:31;1.30;;;0.60;;
16385;SDS011;8302;51.154;4.456;2022-09-25T11:51:04;0.85;;;0.50;;
16385;SDS011;8302;51.154;4.456;2022-09-25T11:53:36;0.55;;;0.43;;
16385;SDS011;8302;51.154;4.456;2022-09-25T11:56:13;0.45;;;0.30;;
16385;SDS011;8302;51.154;4.456;2022-09-25T11:58:50;1.35;;;0.65;;
16385;SDS011;8302;51.154;4.456;2022-09-25T12:01:23;0.38;;;0.38;;
16385;SDS011;8302;51.154;4.456;2022-09-25T12:03:58;1.65;;;0.73;;
16385;SDS011;8302;51.154;4.456;2022-09-25T12:06:41;0.20;;;0.20;;
16385;SDS011;8302;51.154;4.456;2022-09-25T12:09:17;2.42;;;0.50;;
16385;SDS011;8302;51.154;4.456;2022-09-25T12:11:50;1.02;;;0.20;;
16385;SDS011;8302;51.154;4.456;2022-09-25T12:14:23;1.15;;;0.40;;
16385;SDS011;8302;51.154;4.456;2022-09-25T12:16:55;3.78;;;0.85;;
16385;SDS011;8302;51.154;4.456;2022-09-25T12:19:28;4.53;;;0.70;;
16385;SDS011;8302;51.154;4.456;2022-09-25T12:21:58;1.83;;;0.75;;
16385;SDS011;8302;51.154;4.456;2022-09-25T12:24:31;0.90;;;0.60;;
16385;SDS011;8302;51.154;4.456;2022-09-25T12:27:04;1.98;;;0.45;;
16385;SDS011;8302;51.154;4.456;2022-09-25T12:29:39;1.85;;;1.10;;
16385;SDS011;8302;51.154;4.456;2022-09-25T12:32:10;1.58;;;0.70;;
16385;SDS011;8302;51.154;4.456;2022-09-25T12:34:47;0.50;;;0.50;;
16385;SDS011;8302;51.154;4.456;2022-09-25T12:37:18;1.35;;;0.90;;
16385;SDS011;8302;51.154;4.456;2022-09-25T12:39:53;2.40;;;0.52;;
16385;SDS011;8302;51.154;4.456;2022-09-25T12:42:35;3.13;;;0.93;;
16385;SDS011;8302;51.154;4.456;2022-09-25T12:45:08;6.30;;;1.10;;
16385;SDS011;8302;51.154;4.456;2022-09-25T12:47:38;1.45;;;0.30;;
16385;SDS011;8302;51.154;4.456;2022-09-25T12:50:08;1.27;;;0.68;;
16385;SDS011;8302;51.154;4.456;2022-09-25T12:52:38;3.95;;;0.63;;
16385;SDS011;8302;51.154;4.456;2022-09-25T12:55:09;0.35;;;0.30;;
16385;SDS011;8302;51.154;4.456;2022-09-25T12:57:40;2.58;;;0.63;;
16385;SDS011;8302;51.154;4.456;2022-09-25T13:00:14;1.35;;;0.80;;
16385;SDS011;8302;51.154;4.456;2022-09-25T13:02:45;3.42;;;0.80;;
16385;SDS011;8302;51.154;4.456;2022-09-25T13:05:17;1.33;;;0.70;;
16385;SDS011;8302;51.154;4.456;2022-09-25T13:07:48;1.52;;;0.70;;
16385;SDS011;8302;51.154;4.456;2022-09-25T13:10:20;1.25;;;0.65;;
16385;SDS011;8302;51.154;4.456;2022-09-25T13:12:48;1.90;;;0.60;;
16385;SDS011;8302;51.154;4.456;2022-09-25T13:15:17;2.58;;;0.70;;
16385;SDS011;8302;51.154;4.456;2022-09-25T13:17:44;1.75;;;0.75;;
16385;SDS011;8302;51.154;4.456;2022-09-25T13:23:01;0.68;;;0.60;;
16385;SDS011;8302;51.154;4.456;2022-09-25T13:25:29;1.83;;;0.95;;
16385;SDS011;8302;51.154;4.456;2022-09-25T13:28:04;4.32;;;0.80;;
16385;SDS011;8302;51.154;4.456;2022-09-25T13:30:32;1.20;;;0.65;;
16385;SDS011;8302;51.154;4.456;2022-09-25T13:33:00;2.47;;;0.90;;
16385;SDS011;8302;51.154;4.456;2022-09-25T13:35:29;1.80;;;0.57;;
16385;SDS011;8302;51.154;4.456;2022-09-25T13:38:09;0.73;;;0.60;;
16385;SDS011;8302;51.154;4.456;2022-09-25T13:40:37;2.40;;;0.73;;
16385;SDS011;8302;51.154;4.456;2022-09-25T13:43:15;1.58;;;0.80;;
16385;SDS011;8302;51.154;4.456;2022-09-25T13:45:42;1.85;;;0.60;;
16385;SDS011;8302;51.154;4.456;2022-09-25T13:48:11;4.57;;;0.75;;
16385;SDS011;8302;51.154;4.456;2022-09-25T13:50:41;0.40;;;0.40;;
16385;SDS011;8302;51.154;4.456;2022-09-25T13:53:14;1.98;;;0.80;;
16385;SDS011;8302;51.154;4.456;2022-09-25T13:58:29;1.38;;;0.70;;
16385;SDS011;8302;51.154;4.456;2022-09-25T14:00:57;1.35;;;0.50;;
16385;SDS011;8302;51.154;4.456;2022-09-25T14:03:37;0.10;;;0.10;;
16385;SDS011;8302;51.154;4.456;2022-09-25T14:06:08;0.40;;;0.40;;
16385;SDS011;8302;51.154;4.456;2022-09-25T14:08:39;0.30;;;0.30;;
16385;SDS011;8302;51.154;4.456;2022-09-25T14:11:08;0.77;;;0.60;;
16385;SDS011;8302;51.154;4.456;2022-09-25T14:13:36;0.77;;;0.70;;
16385;SDS011;8302;51.154;4.456;2022-09-25T14:16:09;0.40;;;0.40;;
16385;SDS011;8302;51.154;4.456;2022-09-25T14:18:40;0.40;;;0.30;;
16385;SDS011;8302;51.154;4.456;2022-09-25T14:21:20;0.30;;;0.20;;
16385;SDS011;8302;51.154;4.456;2022-09-25T14:23:50;0.28;;;0.28;;
16385;SDS011;8302;51.154;4.456;2022-09-25T14:26:19;0.90;;;0.50;;
16385;SDS011;8302;51.154;4.456;2022-09-25T14:28:48;0.40;;;0.40;;
16385;SDS011;8302;51.154;4.456;2022-09-25T14:31:23;0.15;;;0.15;;
16385;SDS011;8302;51.154;4.456;2022-09-25T14:34:01;0.43;;;0.43;;
16385;SDS011;8302;51.154;4.456;2022-09-25T14:36:34;0.40;;;0.40;;
16385;SDS011;8302;51.154;4.456;2022-09-25T14:39:12;0.95;;;0.60;;
16385;SDS011;8302;51.154;4.456;2022-09-25T14:41:49;1.08;;;0.60;;
16385;SDS011;8302;51.154;4.456;2022-09-25T14:44:23;1.17;;;0.77;;
16385;SDS011;8302;51.154;4.456;2022-09-25T14:46:54;2.25;;;0.60;;
16385;SDS011;8302;51.154;4.456;2022-09-25T14:49:23;0.68;;;0.50;;
16385;SDS011;8302;51.154;4.456;2022-09-25T14:51:52;1.55;;;0.80;;
16385;SDS011;8302;51.154;4.456;2022-09-25T14:54:22;1.15;;;0.90;;
16385;SDS011;8302;51.154;4.456;2022-09-25T14:56:52;0.60;;;0.60;;
16385;SDS011;8302;51.154;4.456;2022-09-25T14:59:23;1.27;;;0.70;;
16385;SDS011;8302;51.154;4.456;2022-09-25T15:01:51;1.05;;;0.77;;
16385;SDS011;8302;51.154;4.456;2022-09-25T15:04:26;0.65;;;0.57;;
16385;SDS011;8302;51.154;4.456;2022-09-25T15:06:58;0.60;;;0.60;;
16385;SDS011;8302;51.154;4.456;2022-09-25T15:09:28;0.43;;;0.43;;
16385;SDS011;8302;51.154;4.456;2022-09-25T15:11:56;0.65;;;0.50;;
16385;SDS011;8302;51.154;4.456;2022-09-25T15:14:23;0.95;;;0.77;;
16385;SDS011;8302;51.154;4.456;2022-09-25T15:16:51;0.65;;;0.65;;
16385;SDS011;8302;51.154;4.456;2022-09-25T15:19:38;0.40;;;0.40;;
16385;SDS011;8302;51.154;4.456;2022-09-25T15:22:08;0.88;;;0.60;;
16385;SDS011;8302;51.154;4.456;2022-09-25T15:24:37;0.45;;;0.40;;
16385;SDS011;8302;51.154;4.456;2022-09-25T15:27:10;0.82;;;0.40;;
16385;SDS011;8302;51.154;4.456;2022-09-25T15:29:42;2.05;;;0.50;;